sensor_id;sensor_type;location;lat;lon;timestamp;pressure;altitude;pressure_sealevel;temperature;humidity
46638;BME280;32365;46.938;7.390;2023-01-06T08:03:03;96015.25;;;3.79;100.00
46638;BME280;32365;46.938;7.390;2023-01-06T08:05:30;96017.28;;;3.83;100.00
46638;BME280;32365;46.938;7.390;2023-01-06T08:07:56;96017.13;;;3.85;100.00
46638;BME280;32365;46.938;7.390;2023-01-06T08:10:23;96021.28;;;3.86;100.00
46638;BME280;32365;46.938;7.390;2023-01-06T08:12:49;96022.53;;;3.90;100.00
46638;BME280;32365;46.938;7.390;2023-01-06T08:15:15;96022.19;;;3.93;100.00
46638;BME280;32365;46.938;7.390;2023-01-06T08:17:42;96037.09;;;3.90;100.00
46638;BME280;32365;46.938;7.390;2023-01-06T08:20:10;96030.81;;;3.69;100.00
46638;BME280;32365;46.938;7.390;2023-01-06T08:22:36;96033.97;;;3.39;100.00
46638;BME280;32365;46.938;7.390;2023-01-06T08:25:03;96035.84;;;3.46;100.00
46638;BME280;32365;46.938;7.390;2023-01-06T08:27:29;96042.53;;;3.55;100.00
46638;BME280;32365;46.938;7.390;2023-01-06T08:29:55;96040.84;;;3.47;100.00
46638;BME280;32365;46.938;7.390;2023-01-06T08:32:22;96042.94;;;3.35;100.00
46638;BME280;32365;46.938;7.390;2023-01-06T08:34:48;96046.31;;;3.36;100.00
46638;BME280;32365;46.938;7.390;2023-01-06T08:37:16;96048.38;;;3.41;100.00
46638;BME280;32365;46.938;7.390;2023-01-06T08:39:42;96054.47;;;3.31;100.00
46638;BME280;32365;46.938;7.390;2023-01-06T08:42:08;96060.50;;;3.47;100.00
46638;BME280;32365;46.938;7.390;2023-01-06T08:44:35;96060.19;;;3.50;100.00
46638;BME280;32365;46.938;7.390;2023-01-06T08:47:01;96062.41;;;3.53;100.00
46638;BME280;32365;46.938;7.390;2023-01-06T08:49:27;96066.91;;;3.51;100.00
46638;BME280;32365;46.938;7.390;2023-01-06T08:51:54;96068.81;;;3.49;100.00
46638;BME280;32365;46.938;7.390;2023-01-06T08:54:22;96074.63;;;3.34;100.00
46638;BME280;32365;46.938;7.390;2023-01-06T08:56:48;96080.69;;;3.33;100.00
46638;BME280;32365;46.938;7.390;2023-01-06T08:59:15;96086.16;;;3.30;100.00
46638;BME280;32365;46.938;7.390;2023-01-06T09:01:42;96082.63;;;3.39;100.00
46638;BME280;32365;46.938;7.390;2023-01-06T09:04:09;96084.06;;;3.34;100.00
46638;BME280;32365;46.938;7.390;2023-01-06T09:06:36;96085.53;;;3.28;100.00
46638;BME280;32365;46.938;7.390;2023-01-06T09:09:03;96087.91;;;3.30;100.00
46638;BME280;32365;46.938;7.390;2023-01-06T09:11:32;96084.63;;;3.52;100.00
46638;BME280;32365;46.938;7.390;2023-01-06T09:13:58;96083.09;;;3.35;100.00
46638;BME280;32365;46.938;7.390;2023-01-06T09:16:25;96073.28;;;3.47;100.00
46638;BME280;32365;46.938;7.390;2023-01-06T09:18:51;96083.31;;;3.65;100.00
46638;BME280;32365;46.938;7.390;2023-01-06T09:21:19;96080.56;;;3.75;100.00
46638;BME280;32365;46.938;7.390;2023-01-06T09:23:46;96086.78;;;3.80;100.00
46638;BME280;32365;46.938;7.390;2023-01-06T09:26:13;96087.53;;;3.89;100.00
46638;BME280;32365;46.938;7.390;2023-01-06T09:28:41;96086.72;;;3.89;100.00
46638;BME280;32365;46.938;7.390;2023-01-06T09:31:07;96086.53;;;3.98;100.00
46638;BME280;32365;46.938;7.390;2023-01-06T09:33:34;96089.34;;;4.12;100.00
46638;BME280;32365;46.938;7.390;2023-01-06T09:36:01;96086.28;;;4.16;100.00
46638;BME280;32365;46.938;7.390;2023-01-06T09:38:27;96086.34;;;4.31;100.00
46638;BME280;32365;46.938;7.390;2023-01-06T09:40:58;96089.31;;;4.43;100.00
46638;BME280;32365;46.938;7.390;2023-01-06T09:43:29;96083.19;;;4.68;100.00
46638;BME280;32365;46.938;7.390;2023-01-06T09:46:02;96084.59;;;4.70;100.00
46638;BME280;32365;46.938;7.390;2023-01-06T09:48:30;96084.19;;;4.82;100.00
46638;BME280;32365;46.938;7.390;2023-01-06T09:50:59;96077.78;;;5.01;100.00
46638;BME280;32365;46.938;7.390;2023-01-06T09:53:28;96077.78;;;5.01;100.00
46638;BME280;32365;46.938;7.390;2023-01-06T09:55:57;96082.03;;;5.08;100.00
46638;BME280;32365;46.938;7.390;2023-01-06T09:58:25;96078.50;;;5.24;100.00
46638;BME280;32365;46.938;7.390;2023-01-06T10:00:54;96084.53;;;5.32;100.00
46638;BME280;32365;46.938;7.390;2023-01-06T10:03:23;96084.25;;;5.27;100.00
46638;BME280;32365;46.938;7.390;2023-01-06T10:05:53;96083.91;;;5.60;100.00
46638;BME280;32365;46.938;7.390;2023-01-06T10:08:23;96075.75;;;5.71;100.00
46638;BME280;32365;46.938;7.390;2023-01-06T10:10:58;96074.22;;;5.92;100.00
46638;BME280;32365;46.938;7.390;2023-01-06T10:13:36;96071.03;;;5.90;100.00
46638;BME280;32365;46.938;7.390;2023-01-06T10:16:07;96063.75;;;5.93;100.00
46638;BME280;32365;46.938;7.390;2023-01-06T10:18:38;96064.28;;;5.89;100.00
46638;BME280;32365;46.938;7.390;2023-01-06T10:21:09;96061.78;;;6.10;100.00
46638;BME280;32365;46.938;7.390;2023-01-06T10:26:28;96061.69;;;6.40;100.00
46638;BME280;32365;46.938;7.390;2023-01-06T10:28:56;96061.97;;;6.52;99.84
46638;BME280;32365;46.938;7.390;2023-01-06T10:31:26;96063.38;;;6.11;99.33
46638;BME280;32365;46.938;7.390;2023-01-06T10:33:58;96083.94;;;5.96;100.00
46638;BME280;32365;46.938;7.390;2023-01-06T10:36:25;96067.59;;;6.19;100.00
46638;BME280;32365;46.938;7.390;2023-01-06T10:38:55;96067.59;;;6.19;100.00
46638;BME280;32365;46.938;7.390;2023-01-06T10:41:23;96062.66;;;6.18;100.00
46638;BME280;32365;46.938;7.390;2023-01-06T10:43:52;96060.56;;;6.06;100.00
46638;BME280;32365;46.938;7.390;2023-01-06T10:46:18;96057.56;;;5.88;100.00
46638;BME280;32365;46.938;7.390;2023-01-06T10:48:45;96050.81;;;6.01;100.00
46638;BME280;32365;46.938;7.390;2023-01-06T10:51:29;96051.69;;;6.09;100.00
46638;BME280;32365;46.938;7.390;2023-01-06T10:53:57;96049.47;;;5.69;100.00
46638;BME280;32365;46.938;7.390;2023-01-06T10:56:27;96043.16;;;5.72;100.00
46638;BME280;32365;46.938;7.390;2023-01-06T10:58:54;96040.59;;;5.72;100.00
46638;BME280;32365;46.938;7.390;2023-01-06T11:01:23;96054.31;;;5.64;100.00
46638;BME280;32365;46.938;7.390;2023-01-06T11:04:02;96039.34;;;5.67;100.00
46638;BME280;32365;46.938;7.390;2023-01-06T11:06:33;96037.41;;;5.54;100.00
46638;BME280;32365;46.938;7.390;2023-01-06T11:09:04;96040.63;;;5.57;100.00
46638;BME280;32365;46.938;7.390;2023-01-06T11:11:31;96034.19;;;5.67;100.00
46638;BME280;32365;46.938;7.390;2023-01-06T11:13:58;96037.28;;;5.78;100.00
46638;BME280;32365;46.938;7.390;2023-01-06T11:16:28;96035.84;;;6.05;100.00
46638;BME280;32365;46.938;7.390;2023-01-06T11:18:55;96037.06;;;6.09;100.00
46638;BME280;32365;46.938;7.390;2023-01-06T11:21:22;96038.84;;;6.30;100.00
46638;BME280;32365;46.938;7.390;2023-01-06T11:24:13;96038.53;;;6.19;100.00
46638;BME280;32365;46.938;7.390;2023-01-06T11:26:42;96040.00;;;5.91;99.29
46638;BME280;32365;46.938;7.390;2023-01-06T11:29:15;96040.72;;;5.85;100.00
46638;BME280;32365;46.938;7.390;2023-01-06T11:31:42;96037.69;;;5.96;100.00
46638;BME280;32365;46.938;7.390;2023-01-06T11:34:16;96035.41;;;5.86;100.00
46638;BME280;32365;46.938;7.390;2023-01-06T11:36:45;96038.84;;;5.94;100.00
46638;BME280;32365;46.938;7.390;2023-01-06T11:39:13;96034.78;;;5.99;100.00
46638;BME280;32365;46.938;7.390;2023-01-06T11:41:43;96037.75;;;5.81;100.00
46638;BME280;32365;46.938;7.390;2023-01-06T11:44:12;96032.34;;;5.98;100.00
46638;BME280;32365;46.938;7.390;2023-01-06T11:46:44;96027.66;;;6.01;100.00
46638;BME280;32365;46.938;7.390;2023-01-06T11:49:13;96029.25;;;6.18;99.33
46638;BME280;32365;46.938;7.390;2023-01-06T11:51:45;96034.31;;;6.32;97.38
46638;BME280;32365;46.938;7.390;2023-01-06T11:54:30;96036.88;;;6.32;98.79
46638;BME280;32365;46.938;7.390;2023-01-06T11:57:01;96028.50;;;6.24;99.20
46638;BME280;32365;46.938;7.390;2023-01-06T11:59:30;96022.03;;;6.56;96.22
46638;BME280;32365;46.938;7.390;2023-01-06T12:02:03;96014.06;;;6.51;95.65
46638;BME280;32365;46.938;7.390;2023-01-06T12:04:34;96008.47;;;6.69;95.79
46638;BME280;32365;46.938;7.390;2023-01-06T12:07:02;96008.94;;;6.51;97.61
46638;BME280;32365;46.938;7.390;2023-01-06T12:09:35;96003.88;;;6.36;97.97
46638;BME280;32365;46.938;7.390;2023-01-06T12:12:04;96001.97;;;6.45;97.70
46638;BME280;32365;46.938;7.390;2023-01-06T12:14:33;95987.56;;;6.79;96.14
46638;BME280;32365;46.938;7.390;2023-01-06T12:17:02;95993.75;;;6.85;95.19
46638;BME280;32365;46.938;7.390;2023-01-06T12:19:31;95983.97;;;7.08;92.99
46638;BME280;32365;46.938;7.390;2023-01-06T12:22:01;95974.03;;;7.05;92.99
46638;BME280;32365;46.938;7.390;2023-01-06T12:24:28;95974.09;;;7.12;93.71
46638;BME280;32365;46.938;7.390;2023-01-06T12:26:58;95969.19;;;7.24;92.94
46638;BME280;32365;46.938;7.390;2023-01-06T12:29:26;95975.34;;;7.23;92.58
46638;BME280;32365;46.938;7.390;2023-01-06T12:31:54;95966.72;;;7.44;90.39
46638;BME280;32365;46.938;7.390;2023-01-06T12:34:25;95965.44;;;7.27;90.59
46638;BME280;32365;46.938;7.390;2023-01-06T12:36:57;95963.91;;;7.39;90.91
46638;BME280;32365;46.938;7.390;2023-01-06T12:39:27;95962.34;;;7.03;92.15
46638;BME280;32365;46.938;7.390;2023-01-06T12:41:56;95969.13;;;7.11;92.68
46638;BME280;32365;46.938;7.390;2023-01-06T12:44:31;95967.84;;;6.93;94.74
46638;BME280;32365;46.938;7.390;2023-01-06T12:47:00;95961.66;;;7.22;93.59
46638;BME280;32365;46.938;7.390;2023-01-06T12:49:30;95963.28;;;7.30;92.73
46638;BME280;32365;46.938;7.390;2023-01-06T12:52:00;95961.44;;;7.17;93.18
46638;BME280;32365;46.938;7.390;2023-01-06T12:54:30;95961.47;;;7.24;93.24
46638;BME280;32365;46.938;7.390;2023-01-06T12:57:03;95956.56;;;7.36;92.80
46638;BME280;32365;46.938;7.390;2023-01-06T12:59:36;95961.31;;;7.39;91.22
46638;BME280;32365;46.938;7.390;2023-01-06T13:02:11;95957.28;;;7.16;90.97
46638;BME280;32365;46.938;7.390;2023-01-06T13:04:45;95955.28;;;7.12;92.00
46638;BME280;32365;46.938;7.390;2023-01-06T13:07:15;95954.59;;;6.96;92.13
46638;BME280;32365;46.938;7.390;2023-01-06T13:09:53;95953.47;;;7.12;91.33
46638;BME280;32365;46.938;7.390;2023-01-06T13:12:28;95954.06;;;7.07;91.47
46638;BME280;32365;46.938;7.390;2023-01-06T13:14:59;95948.53;;;7.11;92.10
46638;BME280;32365;46.938;7.390;2023-01-06T13:17:31;95942.94;;;7.00;92.38
46638;BME280;32365;46.938;7.390;2023-01-06T13:19:59;95948.31;;;7.05;92.29
46638;BME280;32365;46.938;7.390;2023-01-06T13:22:35;95945.28;;;6.95;90.99
46638;BME280;32365;46.938;7.390;2023-01-06T13:25:13;95944.50;;;6.95;91.21
46638;BME280;32365;46.938;7.390;2023-01-06T13:27:53;95942.59;;;7.17;89.34
46638;BME280;32365;46.938;7.390;2023-01-06T13:30:30;95938.88;;;7.19;88.47
46638;BME280;32365;46.938;7.390;2023-01-06T13:38:32;95943.53;;;7.51;85.74
46638;BME280;32365;46.938;7.390;2023-01-06T13:41:07;95938.78;;;7.54;84.35
46638;BME280;32365;46.938;7.390;2023-01-06T13:43:37;95933.25;;;7.58;85.35
46638;BME280;32365;46.938;7.390;2023-01-06T13:46:06;95925.31;;;7.52;85.07
46638;BME280;32365;46.938;7.390;2023-01-06T13:48:35;95923.31;;;7.48;84.41
46638;BME280;32365;46.938;7.390;2023-01-06T13:51:04;95924.78;;;7.15;86.33
46638;BME280;32365;46.938;7.390;2023-01-06T13:53:34;95912.34;;;7.26;85.88
46638;BME280;32365;46.938;7.390;2023-01-06T13:56:20;95913.50;;;7.16;86.66
46638;BME280;32365;46.938;7.390;2023-01-06T13:58:48;95915.09;;;7.17;86.82
46638;BME280;32365;46.938;7.390;2023-01-06T14:01:30;95908.97;;;7.25;86.61
46638;BME280;32365;46.938;7.390;2023-01-06T14:06:42;95905.00;;;7.29;86.82
46638;BME280;32365;46.938;7.390;2023-01-06T14:09:13;95906.78;;;7.22;86.35
46638;BME280;32365;46.938;7.390;2023-01-06T14:11:41;95899.25;;;7.14;86.09
46638;BME280;32365;46.938;7.390;2023-01-06T14:14:18;95901.06;;;7.27;85.96
46638;BME280;32365;46.938;7.390;2023-01-06T14:16:50;95889.97;;;7.26;86.20
46638;BME280;32365;46.938;7.390;2023-01-06T14:19:18;95898.69;;;7.25;85.78
46638;BME280;32365;46.938;7.390;2023-01-06T14:21:46;95890.72;;;7.20;84.56
46638;BME280;32365;46.938;7.390;2023-01-06T14:24:20;95890.06;;;7.04;85.37
46638;BME280;32365;46.938;7.390;2023-01-06T14:26:49;95894.34;;;7.32;84.24
46638;BME280;32365;46.938;7.390;2023-01-06T14:32:02;95887.81;;;7.36;85.72
46638;BME280;32365;46.938;7.390;2023-01-06T14:34:28;95880.44;;;7.20;85.28
46638;BME280;32365;46.938;7.390;2023-01-06T14:36:55;95876.94;;;7.41;84.64
46638;BME280;32365;46.938;7.390;2023-01-06T14:39:24;95888.84;;;7.49;84.00
46638;BME280;32365;46.938;7.390;2023-01-06T14:41:53;95886.03;;;7.44;84.12
46638;BME280;32365;46.938;7.390;2023-01-06T14:44:23;95874.91;;;7.30;85.18
46638;BME280;32365;46.938;7.390;2023-01-06T14:46:51;95880.06;;;7.23;84.37
46638;BME280;32365;46.938;7.390;2023-01-06T14:49:22;95879.25;;;7.29;85.63
46638;BME280;32365;46.938;7.390;2023-01-06T14:51:51;95880.03;;;7.16;84.26
46638;BME280;32365;46.938;7.390;2023-01-06T14:54:20;95881.78;;;7.09;85.02
46638;BME280;32365;46.938;7.390;2023-01-06T14:56:52;95872.47;;;7.01;85.09
46638;BME280;32365;46.938;7.390;2023-01-06T14:59:18;95874.03;;;6.96;85.54
46638;BME280;32365;46.938;7.390;2023-01-06T15:01:53;95875.41;;;6.98;85.71
46638;BME280;32365;46.938;7.390;2023-01-06T15:04:26;95872.03;;;6.98;86.86
46638;BME280;32365;46.938;7.390;2023-01-06T15:06:54;95871.03;;;6.99;87.28
46638;BME280;32365;46.938;7.390;2023-01-06T15:09:21;95874.91;;;7.23;85.28
46638;BME280;32365;46.938;7.390;2023-01-06T15:11:48;95876.88;;;7.21;84.60
46638;BME280;32365;46.938;7.390;2023-01-06T15:14:24;95880.56;;;6.98;86.36
46638;BME280;32365;46.938;7.390;2023-01-06T15:16:50;95877.00;;;6.99;85.59
46638;BME280;32365;46.938;7.390;2023-01-06T15:19:18;95876.78;;;6.94;86.56
46638;BME280;32365;46.938;7.390;2023-01-06T15:21:46;95873.59;;;6.85;86.89
46638;BME280;32365;46.938;7.390;2023-01-06T15:24:15;95872.78;;;6.85;88.46
46638;BME280;32365;46.938;7.390;2023-01-06T15:26:43;95880.09;;;6.81;88.96
46638;BME280;32365;46.938;7.390;2023-01-06T15:29:11;95878.47;;;6.73;89.44
46638;BME280;32365;46.938;7.390;2023-01-06T15:31:39;95872.34;;;6.74;89.72
46638;BME280;32365;46.938;7.390;2023-01-06T15:34:06;95875.06;;;6.66;89.02
46638;BME280;32365;46.938;7.390;2023-01-06T15:36:33;95875.84;;;6.67;89.27
46638;BME280;32365;46.938;7.390;2023-01-06T15:39:03;95872.31;;;6.68;89.81
46638;BME280;32365;46.938;7.390;2023-01-06T15:41:30;95863.97;;;6.66;90.13
46638;BME280;32365;46.938;7.390;2023-01-06T15:43:58;95872.47;;;6.59;90.51
46638;BME280;32365;46.938;7.390;2023-01-06T15:46:24;95867.66;;;6.50;91.13
46638;BME280;32365;46.938;7.390;2023-01-06T15:48:52;95869.41;;;6.42;91.53
46638;BME280;32365;46.938;7.390;2023-01-06T15:51:19;95866.84;;;6.42;92.71
46638;BME280;32365;46.938;7.390;2023-01-06T15:53:46;95869.16;;;6.37;92.56
46638;BME280;32365;46.938;7.390;2023-01-06T15:56:17;95867.22;;;6.39;93.79
46638;BME280;32365;46.938;7.390;2023-01-06T15:58:46;95869.13;;;6.30;93.84
46638;BME280;32365;46.938;7.390;2023-01-06T16:01:13;95875.84;;;6.31;93.76
46638;BME280;32365;46.938;7.390;2023-01-06T16:03:43;95872.06;;;6.27;94.15
46638;BME280;32365;46.938;7.390;2023-01-06T16:06:10;95873.47;;;6.30;94.87
46638;BME280;32365;46.938;7.390;2023-01-06T16:08:37;95868.25;;;6.16;95.47
46638;BME280;32365;46.938;7.390;2023-01-06T16:11:07;95869.97;;;6.09;96.49
46638;BME280;32365;46.938;7.390;2023-01-06T16:13:35;95872.38;;;6.11;96.97
46638;BME280;32365;46.938;7.390;2023-01-06T16:16:03;95870.16;;;6.08;97.66
46638;BME280;32365;46.938;7.390;2023-01-06T16:18:31;95870.22;;;6.14;97.28
46638;BME280;32365;46.938;7.390;2023-01-06T16:20:58;95876.56;;;6.19;96.92
46638;BME280;32365;46.938;7.390;2023-01-06T16:23:26;95873.00;;;6.20;96.85
46638;BME280;32365;46.938;7.390;2023-01-06T16:26:04;95873.75;;;6.13;97.23
46638;BME280;32365;46.938;7.390;2023-01-06T16:28:32;95881.28;;;6.15;97.20
46638;BME280;32365;46.938;7.390;2023-01-06T16:31:05;95880.25;;;6.09;96.87
46638;BME280;32365;46.938;7.390;2023-01-06T16:33:33;95877.88;;;6.08;96.60
46638;BME280;32365;46.938;7.390;2023-01-06T16:35:59;95874.78;;;6.19;95.54
46638;BME280;32365;46.938;7.390;2023-01-06T16:38:26;95880.91;;;6.18;94.23
46638;BME280;32365;46.938;7.390;2023-01-06T16:40:52;95876.56;;;6.19;93.05
46638;BME280;32365;46.938;7.390;2023-01-06T16:43:19;95877.34;;;6.19;91.88
46638;BME280;32365;46.938;7.390;2023-01-06T16:45:45;95877.78;;;6.23;90.73
46638;BME280;32365;46.938;7.390;2023-01-06T16:48:16;95880.16;;;6.24;89.32
46638;BME280;32365;46.938;7.390;2023-01-06T16:50:43;95877.00;;;6.22;89.98
46638;BME280;32365;46.938;7.390;2023-01-06T16:53:10;95882.50;;;6.19;89.73
46638;BME280;32365;46.938;7.390;2023-01-06T16:55:39;95884.88;;;6.21;89.54
46638;BME280;32365;46.938;7.390;2023-01-06T16:58:09;95883.28;;;6.48;88.96
46638;BME280;32365;46.938;7.390;2023-01-06T17:00:38;95882.41;;;6.34;89.03
46638;BME280;32365;46.938;7.390;2023-01-06T17:03:06;95880.44;;;6.36;89.70
46638;BME280;32365;46.938;7.390;2023-01-06T17:05:38;95885.91;;;6.26;89.73
46638;BME280;32365;46.938;7.390;2023-01-06T17:08:07;95895.59;;;6.24;90.55
46638;BME280;32365;46.938;7.390;2023-01-06T17:10:34;95894.78;;;6.24;91.16
46638;BME280;32365;46.938;7.390;2023-01-06T17:13:01;95891.81;;;6.20;92.30
46638;BME280;32365;46.938;7.390;2023-01-06T17:15:45;95901.06;;;6.14;93.04
46638;BME280;32365;46.938;7.390;2023-01-06T17:18:19;95899.81;;;6.10;93.59
46638;BME280;32365;46.938;7.390;2023-01-06T17:20:47;95899.16;;;6.01;94.11
46638;BME280;32365;46.938;7.390;2023-01-06T17:23:13;95899.16;;;6.01;94.44
46638;BME280;32365;46.938;7.390;2023-01-06T17:25:40;95903.38;;;6.09;94.41
46638;BME280;32365;46.938;7.390;2023-01-06T17:28:11;95903.25;;;6.18;94.27
46638;BME280;32365;46.938;7.390;2023-01-06T17:30:39;95903.56;;;6.08;95.44
46638;BME280;32365;46.938;7.390;2023-01-06T17:33:07;95898.38;;;6.01;95.82
46638;BME280;32365;46.938;7.390;2023-01-06T17:35:36;95900.59;;;6.04;94.02
46638;BME280;32365;46.938;7.390;2023-01-06T17:38:11;95903.25;;;5.96;94.55
46638;BME280;32365;46.938;7.390;2023-01-06T17:40:38;95898.19;;;6.03;94.83
46638;BME280;32365;46.938;7.390;2023-01-06T17:43:08;95904.13;;;6.03;94.78
46638;BME280;32365;46.938;7.390;2023-01-06T17:45:35;95902.19;;;6.05;95.28
46638;BME280;32365;46.938;7.390;2023-01-06T17:48:02;95905.13;;;6.02;95.99
46638;BME280;32365;46.938;7.390;2023-01-06T17:50:34;95909.81;;;5.98;96.25
46638;BME280;32365;46.938;7.390;2023-01-06T17:53:12;95908.56;;;5.94;96.11
46638;BME280;32365;46.938;7.390;2023-01-06T17:55:56;95909.75;;;5.92;96.06
46638;BME280;32365;46.938;7.390;2023-01-06T17:58:25;95918.78;;;5.88;95.60
46638;BME280;32365;46.938;7.390;2023-01-06T18:00:52;95923.56;;;5.91;95.85
46638;BME280;32365;46.938;7.390;2023-01-06T18:03:18;95920.38;;;5.89;95.30
46638;BME280;32365;46.938;7.390;2023-01-06T18:06:07;95925.88;;;5.85;96.27
46638;BME280;32365;46.938;7.390;2023-01-06T18:08:36;95916.47;;;5.93;96.78
46638;BME280;32365;46.938;7.390;2023-01-06T18:11:13;95917.50;;;5.98;96.68
46638;BME280;32365;46.938;7.390;2023-01-06T18:13:42;95918.94;;;6.01;96.66
46638;BME280;32365;46.938;7.390;2023-01-06T18:16:13;95920.34;;;6.04;95.17
46638;BME280;32365;46.938;7.390;2023-01-06T18:18:41;95921.16;;;6.04;95.29
46638;BME280;32365;46.938;7.390;2023-01-06T18:21:12;95917.31;;;6.22;94.34
46638;BME280;32365;46.938;7.390;2023-01-06T18:23:50;95919.00;;;6.08;94.54
46638;BME280;32365;46.938;7.390;2023-01-06T18:26:27;95917.69;;;5.97;95.76
46638;BME280;32365;46.938;7.390;2023-01-06T18:28:55;95919.47;;;5.96;96.31
46638;BME280;32365;46.938;7.390;2023-01-06T18:31:22;95925.16;;;5.92;95.93
46638;BME280;32365;46.938;7.390;2023-01-06T18:33:49;95932.25;;;5.90;95.76
46638;BME280;32365;46.938;7.390;2023-01-06T18:36:16;95935.81;;;5.89;95.27
46638;BME280;32365;46.938;7.390;2023-01-06T18:38:42;95929.13;;;5.94;94.06
46638;BME280;32365;46.938;7.390;2023-01-06T18:41:10;95935.81;;;5.89;95.35
46638;BME280;32365;46.938;7.390;2023-01-06T18:43:37;95941.25;;;5.79;95.34
46638;BME280;32365;46.938;7.390;2023-01-06T18:46:10;95948.44;;;5.68;96.24
46638;BME280;32365;46.938;7.390;2023-01-06T18:48:38;95944.13;;;5.69;95.97
46638;BME280;32365;46.938;7.390;2023-01-06T18:51:05;95941.72;;;5.67;95.69
46638;BME280;32365;46.938;7.390;2023-01-06T18:53:39;95942.69;;;5.66;96.20
46638;BME280;32365;46.938;7.390;2023-01-06T18:56:08;95943.38;;;5.75;96.13
46638;BME280;32365;46.938;7.390;2023-01-06T18:58:37;95941.72;;;5.67;95.94
46638;BME280;32365;46.938;7.390;2023-01-06T19:01:16;95944.97;;;5.76;95.92
46638;BME280;32365;46.938;7.390;2023-01-06T19:03:55;95944.63;;;5.79;95.82
46638;BME280;32365;46.938;7.390;2023-01-06T19:06:38;95940.38;;;5.72;95.21
46638;BME280;32365;46.938;7.390;2023-01-06T19:11:53;95944.84;;;5.84;94.26
46638;BME280;32365;46.938;7.390;2023-01-06T19:14:21;95943.16;;;5.92;94.57
46638;BME280;32365;46.938;7.390;2023-01-06T19:16:49;95939.59;;;5.93;94.52
46638;BME280;32365;46.938;7.390;2023-01-06T19:19:21;95933.84;;;5.91;94.83
46638;BME280;32365;46.938;7.390;2023-01-06T19:21:48;95932.25;;;5.90;95.23
46638;BME280;32365;46.938;7.390;2023-01-06T19:24:31;95939.28;;;5.81;95.78
46638;BME280;32365;46.938;7.390;2023-01-06T19:26:58;95939.34;;;5.88;95.37
46638;BME280;32365;46.938;7.390;2023-01-06T19:29:27;95949.28;;;5.91;95.17
46638;BME280;32365;46.938;7.390;2023-01-06T19:31:54;95935.19;;;5.86;95.38
46638;BME280;32365;46.938;7.390;2023-01-06T19:34:22;95936.97;;;5.86;95.79
46638;BME280;32365;46.938;7.390;2023-01-06T19:36:48;95932.69;;;6.15;93.70
46638;BME280;32365;46.938;7.390;2023-01-06T19:39:23;95926.88;;;6.28;92.67
46638;BME280;32365;46.938;7.390;2023-01-06T19:41:50;95929.91;;;6.10;93.37
46638;BME280;32365;46.938;7.390;2023-01-06T19:44:17;95925.31;;;6.05;92.13
46638;BME280;32365;46.938;7.390;2023-01-06T19:46:45;95919.41;;;5.90;93.42
46638;BME280;32365;46.938;7.390;2023-01-06T19:49:15;95921.34;;;5.88;93.31
46638;BME280;32365;46.938;7.390;2023-01-06T19:51:43;95917.81;;;5.89;92.87
46638;BME280;32365;46.938;7.390;2023-01-06T19:54:21;95912.94;;;5.94;91.86
46638;BME280;32365;46.938;7.390;2023-01-06T19:56:47;95910.16;;;6.17;90.34
46638;BME280;32365;46.938;7.390;2023-01-06T19:59:15;95910.78;;;6.19;90.34
46638;BME280;32365;46.938;7.390;2023-01-06T20:01:42;95904.28;;;6.23;90.23
46638;BME280;32365;46.938;7.390;2023-01-06T20:04:13;95903.63;;;6.14;91.17
46638;BME280;32365;46.938;7.390;2023-01-06T20:06:41;95899.88;;;6.17;90.65
46638;BME280;32365;46.938;7.390;2023-01-06T20:09:08;95899.47;;;6.13;90.46
46638;BME280;32365;46.938;7.390;2023-01-06T20:11:34;95895.31;;;6.12;89.98
46638;BME280;32365;46.938;7.390;2023-01-06T20:14:00;95883.44;;;5.90;91.72
46638;BME280;32365;46.938;7.390;2023-01-06T20:16:27;95888.56;;;5.90;91.90
46638;BME280;32365;46.938;7.390;2023-01-06T20:18:53;95876.91;;;5.87;92.05
46638;BME280;32365;46.938;7.390;2023-01-06T20:21:21;95884.41;;;5.89;91.98
46638;BME280;32365;46.938;7.390;2023-01-06T20:23:47;95878.91;;;5.92;91.21
46638;BME280;32365;46.938;7.390;2023-01-06T20:26:13;95877.06;;;5.85;91.79
46638;BME280;32365;46.938;7.390;2023-01-06T20:28:40;95881.84;;;5.89;91.64
46638;BME280;32365;46.938;7.390;2023-01-06T20:31:06;95875.66;;;5.83;91.71
46638;BME280;32365;46.938;7.390;2023-01-06T20:33:32;95875.88;;;5.81;91.65
46638;BME280;32365;46.938;7.390;2023-01-06T20:35:59;95874.69;;;5.84;91.70
46638;BME280;32365;46.938;7.390;2023-01-06T20:38:26;95881.00;;;5.81;91.90
46638;BME280;32365;46.938;7.390;2023-01-06T20:40:53;95881.97;;;5.80;92.55
46638;BME280;32365;46.938;7.390;2023-01-06T20:43:19;95879.00;;;5.83;92.73
46638;BME280;32365;46.938;7.390;2023-01-06T20:45:45;95883.38;;;5.83;92.79
46638;BME280;32365;46.938;7.390;2023-01-06T20:48:12;95884.34;;;5.82;93.67
46638;BME280;32365;46.938;7.390;2023-01-06T20:50:38;95877.94;;;5.71;93.97
46638;BME280;32365;46.938;7.390;2023-01-06T20:53:06;95882.03;;;5.65;94.53
46638;BME280;32365;46.938;7.390;2023-01-06T20:55:33;95872.56;;;5.66;94.53
46638;BME280;32365;46.938;7.390;2023-01-06T20:58:00;95879.44;;;5.65;94.13
46638;BME280;32365;46.938;7.390;2023-01-06T21:00:26;95875.31;;;5.64;94.13
46638;BME280;32365;46.938;7.390;2023-01-06T21:02:52;95870.78;;;5.66;94.47
46638;BME280;32365;46.938;7.390;2023-01-06T21:05:19;95870.00;;;5.66;94.83
46638;BME280;32365;46.938;7.390;2023-01-06T21:07:45;95861.84;;;5.84;93.72
46638;BME280;32365;46.938;7.390;2023-01-06T21:10:12;95856.66;;;5.77;93.32
46638;BME280;32365;46.938;7.390;2023-01-06T21:12:39;95858.97;;;5.72;94.02
46638;BME280;32365;46.938;7.390;2023-01-06T21:15:07;95860.13;;;5.69;94.45
46638;BME280;32365;46.938;7.390;2023-01-06T21:17:33;95853.59;;;5.67;94.45
46638;BME280;32365;46.938;7.390;2023-01-06T21:20:00;95848.63;;;5.65;95.10
46638;BME280;32365;46.938;7.390;2023-01-06T21:22:27;95851.19;;;5.65;94.92
46638;BME280;32365;46.938;7.390;2023-01-06T21:24:53;95848.03;;;5.63;94.62
46638;BME280;32365;46.938;7.390;2023-01-06T21:27:19;95834.38;;;5.63;94.60
46638;BME280;32365;46.938;7.390;2023-01-06T21:29:47;95842.72;;;5.65;94.50
46638;BME280;32365;46.938;7.390;2023-01-06T21:32:13;95847.59;;;5.60;94.69
46638;BME280;32365;46.938;7.390;2023-01-06T21:34:40;95837.94;;;5.62;93.85
46638;BME280;32365;46.938;7.390;2023-01-06T21:37:06;95839.50;;;5.84;92.64